createdAt,value
2022-09-05T00:00:11.778Z,2.50
2022-09-05T00:01:27.780Z,2.88
2022-09-05T00:02:39.326Z,2.70
2022-09-05T00:04:15.527Z,2.53
2022-09-05T00:05:33.653Z,3.28
2022-09-05T00:06:45.336Z,2.88
2022-09-05T00:08:09.806Z,2.88
2022-09-05T00:09:46.992Z,2.70
2022-09-05T00:10:57.690Z,2.75
2022-09-05T00:12:20.307Z,2.88
2022-09-05T00:13:26.552Z,2.97
2022-09-05T00:15:17.834Z,2.45
2022-09-05T00:16:28.803Z,2.72
2022-09-05T00:18:44.086Z,2.95
2022-09-05T00:24:21.958Z,2.72
2022-09-05T00:24:27.280Z,2.70
2022-09-05T00:24:31.151Z,2.63
2022-09-05T00:25:31.685Z,2.47
2022-09-05T00:26:50.520Z,2.63
2022-09-05T00:28:25.256Z,2.60
2022-09-05T00:31:08.115Z,2.83
2022-09-05T00:31:57.304Z,3.00
2022-09-05T00:33:28.424Z,2.90
2022-09-05T00:34:47.576Z,3.20
2022-09-05T00:36:44.327Z,3.75
2022-09-05T00:37:50.204Z,2.88
2022-09-05T00:39:01.035Z,2.78
2022-09-05T00:40:31.180Z,2.60
2022-09-05T00:41:34.542Z,2.92
2022-09-05T00:42:37.454Z,2.80
2022-09-05T00:43:41.612Z,3.13
2022-09-05T00:44:59.238Z,2.83
2022-09-05T00:46:10.443Z,2.90
2022-09-05T00:47:26.466Z,2.85
2022-09-05T00:48:38.195Z,3.08
2022-09-05T00:49:48.322Z,2.90
2022-09-05T00:51:11.784Z,3.35
2022-09-05T00:52:27.348Z,2.90
2022-09-05T00:53:49.561Z,2.80
2022-09-05T00:55:02.433Z,2.90
2022-09-05T00:56:19.652Z,3.60
2022-09-05T00:58:03.101Z,3.08
2022-09-05T00:59:41.507Z,2.80
2022-09-05T01:00:55.570Z,3.15
2022-09-05T01:02:25.187Z,3.60
2022-09-05T01:04:05.984Z,2.70
2022-09-05T01:05:25.901Z,2.83
2022-09-05T01:06:52.005Z,2.90
2022-09-05T01:08:24.515Z,2.75
2022-09-05T01:09:54.257Z,3.05
2022-09-05T01:11:20.868Z,2.67
2022-09-05T01:12:40.492Z,2.97
2022-09-05T01:14:24.670Z,2.90
2022-09-05T01:15:45.071Z,3.42
2022-09-05T01:17:17.625Z,2.67
2022-09-05T01:18:41.200Z,2.90
2022-09-05T01:20:19.031Z,2.72
2022-09-05T01:21:48.189Z,2.83
2022-09-05T01:23:16.673Z,2.88
2022-09-05T01:24:38.522Z,3.13
2022-09-05T01:25:55.046Z,2.97
2022-09-05T01:27:00.064Z,3.03
2022-09-05T01:29:13.919Z,3.22
2022-09-05T01:29:48.162Z,3.10
2022-09-05T01:31:09.757Z,3.00
2022-09-05T01:32:30.349Z,2.97
2022-09-05T01:34:02.553Z,2.85
2022-09-05T01:35:26.202Z,2.90
2022-09-05T01:37:00.488Z,3.08
2022-09-05T01:38:21.204Z,3.03
2022-09-05T01:40:14.836Z,3.30
2022-09-05T01:41:36.538Z,2.88
2022-09-05T01:43:11.082Z,2.75
2022-09-05T01:44:29.045Z,3.35
2022-09-05T01:46:08.984Z,3.00
2022-09-05T01:47:35.337Z,2.70
2022-09-05T01:48:52.757Z,3.30
2022-09-05T01:50:20.501Z,3.17
2022-09-05T01:51:28.285Z,3.40
2022-09-05T01:52:57.284Z,3.00
2022-09-05T01:54:24.929Z,2.90
2022-09-05T01:56:06.773Z,2.92
2022-09-05T01:57:24.082Z,2.92
2022-09-05T01:58:44.589Z,2.95
2022-09-05T02:00:07.763Z,2.90
2022-09-05T02:01:32.433Z,3.33
2022-09-05T02:03:02.481Z,3.10
2022-09-05T02:04:12.878Z,3.13
2022-09-05T02:05:49.018Z,2.88
2022-09-05T02:07:30.267Z,2.90
2022-09-05T02:08:51.766Z,3.28
2022-09-05T02:10:37.484Z,3.03
2022-09-05T02:11:41.421Z,2.72
2022-09-05T02:13:02.425Z,2.63
2022-09-05T02:14:27.082Z,2.97
2022-09-05T02:15:59.063Z,3.00
2022-09-05T02:17:51.294Z,3.13
2022-09-05T02:19:10.525Z,2.97
2022-09-05T02:20:33.826Z,3.30
2022-09-05T02:21:55.454Z,3.58
2022-09-05T02:23:32.635Z,3.00
2022-09-05T02:24:40.553Z,2.95
2022-09-05T02:26:01.410Z,2.90
2022-09-05T02:27:31.855Z,3.20
2022-09-05T02:29:02.958Z,2.70
2022-09-05T02:30:08.598Z,3.03
2022-09-05T02:31:45.520Z,3.22
2022-09-05T02:33:05.547Z,3.08
2022-09-05T02:34:36.192Z,2.70
2022-09-05T02:35:48.719Z,2.70
2022-09-05T02:37:01.529Z,2.78
2022-09-05T02:40:21.911Z,3.13
2022-09-05T02:45:01.323Z,3.38
2022-09-05T02:45:13.704Z,3.08
2022-09-05T02:45:18.521Z,3.42
2022-09-05T02:45:25.466Z,2.88
2022-09-05T02:46:48.242Z,2.97
2022-09-05T02:48:15.559Z,3.38
2022-09-05T02:51:04.185Z,3.42
2022-09-05T02:57:29.247Z,3.13
2022-09-05T02:57:33.653Z,3.55
2022-09-05T02:57:34.567Z,3.45
2022-09-05T02:57:40.979Z,3.22
2022-09-05T02:58:07.060Z,3.20
2022-09-05T02:59:36.905Z,3.20
2022-09-05T03:00:48.023Z,3.00
2022-09-05T03:02:02.080Z,3.10
2022-09-05T03:03:27.467Z,2.63
2022-09-05T03:04:29.223Z,3.20
2022-09-05T03:05:40.941Z,3.20
2022-09-05T03:06:52.697Z,3.00
2022-09-05T03:08:00.232Z,3.13
2022-09-05T03:09:17.081Z,3.03
2022-09-05T03:10:54.529Z,3.10
2022-09-05T03:12:28.510Z,3.15
2022-09-05T03:13:59.170Z,3.05
2022-09-05T03:15:24.905Z,3.08
2022-09-05T03:16:47.538Z,3.42
2022-09-05T03:18:20.255Z,3.10
2022-09-05T03:19:46.555Z,3.20
2022-09-05T03:21:09.663Z,3.55
2022-09-05T03:22:36.239Z,3.00
2022-09-05T03:24:17.732Z,3.50
2022-09-05T03:25:57.516Z,3.50
2022-09-05T03:27:08.346Z,3.15
2022-09-05T03:28:51.511Z,3.20
2022-09-05T03:30:08.433Z,3.10
2022-09-05T03:31:22.031Z,11.15
2022-09-05T03:32:31.079Z,10.43
2022-09-05T03:34:12.404Z,6.93
2022-09-05T03:35:20.411Z,3.70
2022-09-05T03:36:56.801Z,3.22
2022-09-05T03:38:04.220Z,2.97
2022-09-05T03:39:28.002Z,2.95
2022-09-05T03:40:40.620Z,3.10
2022-09-05T03:41:55.499Z,2.80
2022-09-05T03:43:01.360Z,3.05
2022-09-05T03:44:15.256Z,3.15
2022-09-05T03:45:38.981Z,3.25
2022-09-05T03:46:59.556Z,3.45
2022-09-05T03:48:28.493Z,3.38
2022-09-05T03:54:32.370Z,3.40
2022-09-05T03:57:14.940Z,3.05
2022-09-05T03:57:20.616Z,3.15
2022-09-05T03:57:27.546Z,3.60
2022-09-05T03:57:32.250Z,3.17
2022-09-05T03:58:57.124Z,3.10
2022-09-05T04:00:20.935Z,2.92
2022-09-05T04:02:29.082Z,3.40
2022-09-05T04:08:07.092Z,3.35
2022-09-05T04:08:15.980Z,3.25
2022-09-05T04:08:30.676Z,3.00
2022-09-05T04:08:41.058Z,3.25
2022-09-05T04:09:53.699Z,3.20
2022-09-05T04:11:01.967Z,2.90
2022-09-05T04:12:13.380Z,3.50
2022-09-05T04:13:22.538Z,3.55
2022-09-05T04:14:37.261Z,3.70
2022-09-05T04:16:19.971Z,3.60
2022-09-05T04:17:46.440Z,3.42
2022-09-05T04:18:53.768Z,3.47
2022-09-05T04:20:12.634Z,3.63
2022-09-05T04:21:32.234Z,3.50
2022-09-05T04:22:59.728Z,3.38
2022-09-05T04:24:05.755Z,3.50
2022-09-05T04:25:18.750Z,2.70
2022-09-05T04:26:47.863Z,3.30
2022-09-05T04:27:57.181Z,2.80
2022-09-05T04:29:15.153Z,3.10
2022-09-05T04:30:45.739Z,2.80
2022-09-05T04:32:00.948Z,3.42
2022-09-05T04:33:36.410Z,3.45
2022-09-05T04:34:53.851Z,3.25
2022-09-05T04:36:49.656Z,3.08
2022-09-05T04:38:10.273Z,3.47
2022-09-05T04:39:17.783Z,2.97
2022-09-05T04:40:49.607Z,3.50
2022-09-05T04:42:06.058Z,3.25
2022-09-05T04:43:14.539Z,3.63
2022-09-05T04:44:35.312Z,3.45
2022-09-05T04:45:43.383Z,3.30
2022-09-05T04:46:49.224Z,3.10
2022-09-05T04:47:54.409Z,3.63
2022-09-05T04:49:12.740Z,3.40
2022-09-05T04:50:23.645Z,3.10
2022-09-05T04:52:00.832Z,3.83
2022-09-05T04:53:24.680Z,2.90
2022-09-05T04:54:40.311Z,3.17
2022-09-05T04:55:51.175Z,3.40
2022-09-05T04:57:14.006Z,3.38
2022-09-05T04:59:29.378Z,3.42
2022-09-05T05:06:00.912Z,3.33
2022-09-05T05:06:10.496Z,3.53
2022-09-05T05:06:11.231Z,3.72
2022-09-05T05:06:19.104Z,3.58
2022-09-05T05:06:45.387Z,3.70
2022-09-05T05:08:12.671Z,3.72
2022-09-05T05:09:31.884Z,3.95
2022-09-05T05:14:03.995Z,3.92
2022-09-05T05:17:55.745Z,3.53
2022-09-05T05:17:58.202Z,3.70
2022-09-05T05:18:12.647Z,4.10
2022-09-05T05:18:15.635Z,4.03
2022-09-05T05:18:55.946Z,4.22
2022-09-05T05:20:40.542Z,3.72
2022-09-05T05:21:49.738Z,4.25
2022-09-05T05:23:29.406Z,4.05
2022-09-05T05:24:45.022Z,3.92
2022-09-05T05:25:54.156Z,3.78
2022-09-05T05:27:18.146Z,3.90
2022-09-05T05:29:03.634Z,3.42
2022-09-05T05:30:11.875Z,4.05
2022-09-05T05:31:30.823Z,4.25
2022-09-05T05:32:46.247Z,3.97
2022-09-05T05:33:51.404Z,4.20
2022-09-05T05:35:08.201Z,3.80
2022-09-05T05:36:18.066Z,3.95
2022-09-05T05:37:25.486Z,4.40
2022-09-05T05:38:37.783Z,4.00
2022-09-05T05:39:45.279Z,3.70
2022-09-05T05:40:52.228Z,4.10
2022-09-05T05:41:55.915Z,4.10
2022-09-05T05:43:16.029Z,4.07
2022-09-05T05:44:20.798Z,4.30
2022-09-05T05:45:28.808Z,4.20
2022-09-05T05:46:36.413Z,3.70
2022-09-05T05:47:46.657Z,4.07
2022-09-05T05:48:57.265Z,3.90
2022-09-05T05:50:21.904Z,4.28
2022-09-05T05:51:44.105Z,4.05
2022-09-05T05:53:04.906Z,3.95
2022-09-05T05:54:50.632Z,4.40
2022-09-05T05:56:38.285Z,4.30
2022-09-05T05:58:12.896Z,4.40
2022-09-05T05:59:31.956Z,4.10
2022-09-05T06:00:55.326Z,4.40
2022-09-05T06:02:41.825Z,4.00
2022-09-05T06:04:07.140Z,4.25
2022-09-05T06:05:20.047Z,4.57
2022-09-05T06:06:22.753Z,3.97
2022-09-05T06:08:30.543Z,4.25
2022-09-05T06:13:44.642Z,4.47
2022-09-05T06:14:54.844Z,4.07
2022-09-05T06:14:59.828Z,4.40
2022-09-05T06:15:26.682Z,4.05
2022-09-05T06:17:03.130Z,4.68
2022-09-05T06:18:24.277Z,4.20
2022-09-05T06:22:06.313Z,4.38
2022-09-05T06:22:09.314Z,4.15
2022-09-05T06:23:39.163Z,4.20
2022-09-05T06:25:32.642Z,5.00
2022-09-05T06:27:01.211Z,5.25
2022-09-05T06:28:36.533Z,4.53
2022-09-05T06:29:50.511Z,4.30
2022-09-05T06:31:30.601Z,4.35
2022-09-05T06:33:01.277Z,3.90
2022-09-05T06:34:41.263Z,4.57
2022-09-05T06:36:09.471Z,4.18
2022-09-05T06:37:37.246Z,4.10
2022-09-05T06:38:57.937Z,4.15
2022-09-05T06:40:12.049Z,4.15
2022-09-05T06:41:25.736Z,4.68
2022-09-05T06:42:43.344Z,4.70
2022-09-05T06:44:19.907Z,4.93
2022-09-05T06:45:58.879Z,4.15
2022-09-05T06:47:24.143Z,4.38
2022-09-05T06:48:45.719Z,4.45
2022-09-05T06:50:24.351Z,4.25
2022-09-05T06:51:47.643Z,4.55
2022-09-05T06:53:10.948Z,4.78
2022-09-05T06:54:59.500Z,4.70
2022-09-05T06:56:25.527Z,4.70
2022-09-05T06:57:52.496Z,4.25
2022-09-05T06:59:24.712Z,4.90
2022-09-05T07:00:47.950Z,4.32
2022-09-05T07:02:07.234Z,4.22
2022-09-05T07:03:28.731Z,4.70
2022-09-05T07:05:24.817Z,4.68
2022-09-05T07:07:01.436Z,4.63
2022-09-05T07:08:35.298Z,4.40
2022-09-05T07:09:46.981Z,4.53
2022-09-05T07:11:15.860Z,3.95
2022-09-05T07:12:30.170Z,4.00
2022-09-05T07:14:09.124Z,4.00
2022-09-05T07:15:29.902Z,4.05
2022-09-05T07:16:38.307Z,4.15
2022-09-05T07:18:11.224Z,4.55
2022-09-05T07:19:17.160Z,4.10
2022-09-05T07:20:27.425Z,4.40
2022-09-05T07:22:03.306Z,3.83
2022-09-05T07:23:40.924Z,3.83
2022-09-05T07:24:54.024Z,4.18
2022-09-05T07:25:57.525Z,4.45
2022-09-05T07:27:04.073Z,3.65
2022-09-05T07:28:28.837Z,3.85
2022-09-05T07:29:53.500Z,3.85
2022-09-05T07:31:07.559Z,4.00
2022-09-05T07:32:15.221Z,3.88
2022-09-05T07:33:23.432Z,4.30
2022-09-05T07:34:29.462Z,4.18
2022-09-05T07:35:42.302Z,3.72
2022-09-05T07:36:49.989Z,3.80
2022-09-05T07:38:52.189Z,3.47
2022-09-05T07:40:04.015Z,3.72
2022-09-05T07:41:28.218Z,4.00
2022-09-05T07:42:41.822Z,3.70
2022-09-05T07:43:46.529Z,3.83
2022-09-05T07:45:04.590Z,3.58
2022-09-05T07:46:15.386Z,3.55
2022-09-05T07:47:32.218Z,3.80
2022-09-05T07:48:37.732Z,3.70
2022-09-05T07:49:42.378Z,3.58
2022-09-05T07:56:50.997Z,3.72
2022-09-05T07:56:51.340Z,3.65
2022-09-05T07:56:54.031Z,3.20
2022-09-05T07:56:54.921Z,3.40
2022-09-05T07:58:41.459Z,3.50
2022-09-05T07:59:57.836Z,3.33
2022-09-05T08:00:59.967Z,3.38
2022-09-05T08:02:03.138Z,3.38
2022-09-05T08:03:13.810Z,3.15
2022-09-05T08:04:34.168Z,3.15
2022-09-05T08:06:00.400Z,3.17
2022-09-05T08:07:45.783Z,3.10
2022-09-05T08:09:05.620Z,3.08
2022-09-05T08:10:35.757Z,3.17
2022-09-05T08:11:48.201Z,3.35
2022-09-05T08:13:23.374Z,3.70
2022-09-05T08:14:45.846Z,3.17
2022-09-05T08:16:10.295Z,3.63
2022-09-05T08:17:21.044Z,3.50
2022-09-05T08:18:57.853Z,3.13
2022-09-05T08:20:30.467Z,3.00
2022-09-05T08:21:47.783Z,3.67
2022-09-05T08:23:13.118Z,3.20
2022-09-05T08:24:26.854Z,2.70
2022-09-05T08:25:57.098Z,3.10
2022-09-05T08:27:10.781Z,2.97
2022-09-05T08:28:38.971Z,2.95
2022-09-05T08:30:24.403Z,2.72
2022-09-05T08:31:38.548Z,3.00
2022-09-05T08:32:49.932Z,2.88
2022-09-05T08:34:00.435Z,2.80
2022-09-05T08:35:11.464Z,2.75
2022-09-05T08:36:36.574Z,2.70
2022-09-05T08:37:38.597Z,2.70
2022-09-05T08:38:43.566Z,2.80
2022-09-05T08:39:48.012Z,2.40
2022-09-05T08:41:05.566Z,2.72
2022-09-05T08:42:16.085Z,2.67
2022-09-05T08:46:35.208Z,2.45
2022-09-05T08:46:40.604Z,2.55
2022-09-05T08:46:49.911Z,2.50
2022-09-05T08:48:13.069Z,2.55
2022-09-05T08:49:37.571Z,2.85
2022-09-05T08:51:10.007Z,2.63
2022-09-05T08:52:23.670Z,3.28
2022-09-05T08:53:47.234Z,3.00
2022-09-05T08:55:24.069Z,2.88
2022-09-05T08:56:55.502Z,2.78
2022-09-05T08:58:29.001Z,2.92
2022-09-05T08:59:45.825Z,2.50
2022-09-05T09:01:17.792Z,2.80
2022-09-05T09:02:46.393Z,2.53
2022-09-05T09:03:52.845Z,2.35
2022-09-05T09:05:14.285Z,2.38
2022-09-05T09:06:37.386Z,2.42
2022-09-05T09:07:51.994Z,3.00
2022-09-05T09:09:16.116Z,2.75
2022-09-05T09:10:36.570Z,3.00
2022-09-05T09:12:14.058Z,3.10
2022-09-05T09:13:31.215Z,2.95
2022-09-05T09:14:35.924Z,2.90
2022-09-05T09:15:57.582Z,2.60
2022-09-05T09:17:28.693Z,2.90
2022-09-05T09:18:58.793Z,3.10
2022-09-05T09:20:06.674Z,3.30
2022-09-05T09:21:41.111Z,3.03
2022-09-05T09:22:51.600Z,2.80
2022-09-05T09:24:07.908Z,2.75
2022-09-05T09:25:16.771Z,2.63
2022-09-05T09:26:30.153Z,2.65
2022-09-05T09:28:46.924Z,2.90
2022-09-05T09:29:07.559Z,2.90
2022-09-05T09:30:10.615Z,3.17
2022-09-05T09:31:29.103Z,2.95
2022-09-05T09:32:39.503Z,2.20
2022-09-05T09:33:58.675Z,2.45
2022-09-05T09:35:19.979Z,2.65
2022-09-05T09:37:11.125Z,2.95
2022-09-05T09:38:18.852Z,2.65
2022-09-05T09:39:38.773Z,2.35
2022-09-05T09:40:47.423Z,2.60
2022-09-05T09:42:33.442Z,2.63
2022-09-05T09:44:02.294Z,2.92
2022-09-05T09:45:22.497Z,3.17
2022-09-05T09:46:39.686Z,2.80
2022-09-05T09:47:56.508Z,3.47
2022-09-05T09:49:23.074Z,3.17
2022-09-05T09:51:03.309Z,2.78
2022-09-05T09:52:24.553Z,3.03
2022-09-05T09:53:46.868Z,3.10
2022-09-05T09:55:27.161Z,3.17
2022-09-05T09:56:45.512Z,2.58
2022-09-05T09:57:59.026Z,2.92
2022-09-05T09:59:09.859Z,3.00
2022-09-05T10:00:21.351Z,3.10
2022-09-05T10:01:52.055Z,2.80
2022-09-05T10:05:41.477Z,3.50
2022-09-05T10:10:38.156Z,3.50
2022-09-05T10:10:50.600Z,2.95
2022-09-05T10:10:57.757Z,2.88
2022-09-05T10:11:08.801Z,2.72
2022-09-05T10:12:01.476Z,3.10
2022-09-05T10:13:26.897Z,2.58
2022-09-05T10:14:49.258Z,3.03
2022-09-05T10:16:34.355Z,2.83
2022-09-05T10:17:47.518Z,2.70
2022-09-05T10:19:13.827Z,2.72
2022-09-05T10:20:36.044Z,2.50
2022-09-05T10:22:37.480Z,2.90
2022-09-05T10:24:12.001Z,2.40
2022-09-05T10:25:27.920Z,2.58
2022-09-05T10:27:03.163Z,2.35
2022-09-05T10:28:38.130Z,1.83
2022-09-05T10:30:10.180Z,2.30
2022-09-05T10:34:38.092Z,2.10
2022-09-05T10:35:13.321Z,2.10
2022-09-05T10:35:22.646Z,2.33
2022-09-05T10:36:33.177Z,2.10
2022-09-05T10:37:54.938Z,2.30
2022-09-05T10:39:25.824Z,2.28
2022-09-05T10:40:29.782Z,2.55
2022-09-05T10:41:51.805Z,2.47
2022-09-05T10:43:02.209Z,2.58
2022-09-05T10:44:06.510Z,2.55
2022-09-05T10:45:20.114Z,2.60
2022-09-05T10:46:50.618Z,2.60
2022-09-05T10:47:57.557Z,2.70
2022-09-05T10:49:16.657Z,2.10
2022-09-05T10:50:33.271Z,2.30
2022-09-05T10:51:52.141Z,2.40
2022-09-05T10:53:00.087Z,2.42
2022-09-05T10:54:34.040Z,2.30
2022-09-05T10:56:47.223Z,2.50
2022-09-05T10:59:31.789Z,2.47
2022-09-05T11:01:43.184Z,2.10
2022-09-05T11:02:23.868Z,2.08
2022-09-05T11:03:05.092Z,2.17
2022-09-05T11:05:01.490Z,2.20
2022-09-05T11:06:10.150Z,2.15
2022-09-05T11:07:38.394Z,2.22
2022-09-05T11:08:45.614Z,2.20
2022-09-05T11:10:24.463Z,2.42
2022-09-05T11:11:34.094Z,2.13
2022-09-05T11:13:06.032Z,1.98
2022-09-05T11:14:34.834Z,2.00
2022-09-05T11:16:03.712Z,2.08
2022-09-05T11:17:23.841Z,1.80
2022-09-05T11:18:56.150Z,1.75
2022-09-05T11:20:34.896Z,1.70
2022-09-05T11:22:21.980Z,1.90
2022-09-05T11:23:40.174Z,1.73
2022-09-05T11:25:03.522Z,1.90
2022-09-05T11:26:14.578Z,1.67
2022-09-05T11:27:24.737Z,1.75
2022-09-05T11:28:55.902Z,2.13
2022-09-05T11:30:29.587Z,1.83
2022-09-05T11:33:55.018Z,1.85
2022-09-05T11:39:47.726Z,1.77
2022-09-05T11:39:50.384Z,1.77
2022-09-05T11:39:54.718Z,2.00
2022-09-05T11:40:04.814Z,1.70
2022-09-05T11:40:28.347Z,1.77
2022-09-05T11:42:12.009Z,2.10
2022-09-05T11:43:37.277Z,1.80
2022-09-05T11:44:50.205Z,1.92
2022-09-05T11:46:16.225Z,1.80
2022-09-05T11:47:45.555Z,2.00
2022-09-05T11:49:06.448Z,1.90
2022-09-05T11:50:38.154Z,1.75
2022-09-05T11:52:29.840Z,1.90
2022-09-05T11:54:15.087Z,1.90
2022-09-05T11:55:35.020Z,1.77
2022-09-05T11:56:53.837Z,1.88
2022-09-05T11:58:48.129Z,1.80
2022-09-05T12:00:33.795Z,1.77
2022-09-05T12:01:56.757Z,2.00
2022-09-05T12:03:57.323Z,1.80
2022-09-05T12:05:49.740Z,1.77
2022-09-05T12:07:31.620Z,1.70
2022-09-05T12:08:55.989Z,1.67
2022-09-05T12:10:06.067Z,2.00
2022-09-05T12:11:38.606Z,2.03
2022-09-05T12:13:07.689Z,1.50
2022-09-05T12:14:55.311Z,2.17
2022-09-05T12:16:08.397Z,1.73
2022-09-05T12:17:35.254Z,1.75
2022-09-05T12:18:40.414Z,1.60
2022-09-05T12:19:55.964Z,1.60
2022-09-05T12:21:21.646Z,1.70
2022-09-05T12:22:24.259Z,1.60
2022-09-05T12:24:48.158Z,1.73
2022-09-05T12:27:37.149Z,1.90
2022-09-05T12:27:44.170Z,1.67
2022-09-05T12:29:32.676Z,1.65
2022-09-05T12:30:13.981Z,2.00
2022-09-05T12:32:31.158Z,1.73
2022-09-05T12:36:01.689Z,1.90
2022-09-05T12:36:04.241Z,1.50
2022-09-05T12:40:25.457Z,1.73
2022-09-05T12:40:43.604Z,1.80
2022-09-05T12:41:34.652Z,1.60
2022-09-05T12:41:39.047Z,1.70
2022-09-05T12:42:24.043Z,1.63
2022-09-05T12:44:39.119Z,1.73
2022-09-05T12:45:09.865Z,1.83
2022-09-05T12:46:45.696Z,1.67
2022-09-05T12:47:54.520Z,1.65
2022-09-05T12:49:17.572Z,1.70
2022-09-05T12:50:23.305Z,1.83
2022-09-05T12:51:46.615Z,1.90
2022-09-05T12:53:07.175Z,1.90
2022-09-05T12:54:27.892Z,2.03
2022-09-05T12:56:38.690Z,1.60
2022-09-05T13:00:30.342Z,1.48
2022-09-05T13:03:04.570Z,1.67
2022-09-05T13:03:08.783Z,1.70
2022-09-05T13:03:09.658Z,1.90
2022-09-05T13:03:27.272Z,1.60
2022-09-05T13:05:02.720Z,1.65
2022-09-05T13:06:25.472Z,1.77
2022-09-05T13:07:42.824Z,1.65
2022-09-05T13:08:48.761Z,1.75
2022-09-05T13:14:16.869Z,1.75
2022-09-05T13:14:48.156Z,1.70
2022-09-05T13:14:55.594Z,1.88
2022-09-05T13:15:01.159Z,1.75
2022-09-05T13:16:03.373Z,1.80
2022-09-05T13:17:08.907Z,1.50
2022-09-05T13:18:27.375Z,1.60
2022-09-05T13:19:51.348Z,1.50
2022-09-05T13:20:56.122Z,1.63
2022-09-05T13:22:00.105Z,1.45
2022-09-05T13:23:14.546Z,1.83
2022-09-05T13:24:30.669Z,1.67
2022-09-05T13:25:37.062Z,1.60
2022-09-05T13:26:50.183Z,2.00
2022-09-05T13:27:59.099Z,1.38
2022-09-05T13:29:24.381Z,1.85
2022-09-05T13:31:34.839Z,2.40
2022-09-05T13:37:54.980Z,1.83
2022-09-05T13:37:58.029Z,1.80
2022-09-05T13:38:02.433Z,1.73
2022-09-05T13:38:07.414Z,2.13
2022-09-05T13:38:21.159Z,1.70
2022-09-05T13:39:18.044Z,1.88
2022-09-05T13:40:24.842Z,1.70
2022-09-05T13:41:53.897Z,1.80
2022-09-05T13:43:14.729Z,1.88
2022-09-05T13:44:26.881Z,1.90
2022-09-05T13:45:31.970Z,1.80
2022-09-05T13:46:42.752Z,1.52
2022-09-05T13:47:56.566Z,1.90
2022-09-05T13:50:40.341Z,1.73
2022-09-05T13:51:51.046Z,1.75
2022-09-05T13:52:58.438Z,1.70
2022-09-05T13:54:38.720Z,1.60
2022-09-05T13:55:53.944Z,1.60
2022-09-05T13:57:32.362Z,1.75
2022-09-05T13:58:57.241Z,2.00
2022-09-05T14:00:27.869Z,1.80
2022-09-05T14:01:40.061Z,1.60
2022-09-05T14:03:31.785Z,1.63
2022-09-05T14:05:19.352Z,1.70
2022-09-05T14:07:43.942Z,1.80
2022-09-05T14:08:27.839Z,1.70
2022-09-05T14:09:51.508Z,1.80
2022-09-05T14:11:06.460Z,1.60
2022-09-05T14:12:11.836Z,1.52
2022-09-05T14:13:28.327Z,1.70
2022-09-05T14:15:09.273Z,1.58
2022-09-05T14:16:24.456Z,1.65
2022-09-05T14:18:21.401Z,1.80
2022-09-05T14:19:43.410Z,1.85
2022-09-05T14:21:15.917Z,1.70
2022-09-05T14:22:44.264Z,1.80
2022-09-05T14:23:57.607Z,1.88
2022-09-05T14:25:00.877Z,2.15
2022-09-05T14:26:14.786Z,1.70
2022-09-05T14:27:23.904Z,1.73
2022-09-05T14:28:39.951Z,1.70
2022-09-05T14:29:49.947Z,1.58
2022-09-05T14:32:13.096Z,1.98
2022-09-05T14:37:35.980Z,1.67
2022-09-05T14:37:45.048Z,1.50
2022-09-05T14:37:50.192Z,1.63
2022-09-05T14:38:01.279Z,1.75
2022-09-05T14:39:00.490Z,1.90
2022-09-05T14:40:29.474Z,2.30
2022-09-05T14:42:10.090Z,2.53
2022-09-05T14:43:47.622Z,1.92
2022-09-05T14:44:58.543Z,2.25
2022-09-05T14:46:57.373Z,2.10
2022-09-05T14:48:29.013Z,1.80
2022-09-05T14:49:37.094Z,2.28
2022-09-05T14:51:03.435Z,1.60
2022-09-05T14:52:23.725Z,1.80
2022-09-05T14:57:23.213Z,2.10
2022-09-05T15:02:43.339Z,1.90
2022-09-05T15:02:49.861Z,1.77
2022-09-05T15:02:49.862Z,2.05
2022-09-05T15:02:53.003Z,1.90
2022-09-05T15:05:14.227Z,1.77
2022-09-05T15:06:32.718Z,1.77
2022-09-05T15:07:43.843Z,1.70
2022-09-05T15:11:23.964Z,1.88
2022-09-05T15:12:17.314Z,2.10
2022-09-05T15:12:27.919Z,1.83
2022-09-05T15:13:13.257Z,1.95
2022-09-05T15:14:20.179Z,1.90
2022-09-05T15:15:33.981Z,1.77
2022-09-05T15:16:43.366Z,2.00
2022-09-05T15:17:50.088Z,1.70
2022-09-05T15:18:53.296Z,1.65
2022-09-05T15:20:05.478Z,1.88
2022-09-05T15:21:33.243Z,2.10
2022-09-05T15:22:41.641Z,2.05
2022-09-05T15:23:46.090Z,2.30
2022-09-05T15:25:01.339Z,1.90
2022-09-05T15:26:25.600Z,2.10
2022-09-05T15:27:29.642Z,2.13
2022-09-05T15:28:37.163Z,2.33
2022-09-05T15:29:39.080Z,2.00
2022-09-05T15:30:56.582Z,2.22
2022-09-05T15:32:21.236Z,2.45
2022-09-05T15:33:26.353Z,1.92
2022-09-05T15:34:33.334Z,2.33
2022-09-05T15:35:42.448Z,2.20
2022-09-05T15:36:44.233Z,2.22
2022-09-05T15:37:47.973Z,2.20
2022-09-05T15:38:55.157Z,2.10
2022-09-05T15:40:23.050Z,1.92
2022-09-05T15:41:28.878Z,2.13
2022-09-05T15:42:37.536Z,2.58
2022-09-05T15:43:54.008Z,2.20
2022-09-05T15:45:10.792Z,2.03
2022-09-05T15:46:13.692Z,2.10
2022-09-05T15:47:24.383Z,2.58
2022-09-05T15:48:33.827Z,2.38
2022-09-05T15:49:54.038Z,2.00
2022-09-05T15:50:57.998Z,2.15
2022-09-05T15:52:20.994Z,2.30
2022-09-05T15:53:29.042Z,1.70
2022-09-05T15:54:40.187Z,2.40
2022-09-05T15:55:50.460Z,2.10
2022-09-05T15:57:06.071Z,2.20
2022-09-05T15:58:08.038Z,2.50
2022-09-05T15:59:11.347Z,2.80
2022-09-05T16:00:36.120Z,2.63
2022-09-05T16:01:59.948Z,1.90
2022-09-05T16:04:18.568Z,4.10
2022-09-05T16:10:21.505Z,4.65
2022-09-05T16:10:28.409Z,4.10
2022-09-05T16:10:40.245Z,4.70
2022-09-05T16:10:40.814Z,4.45
2022-09-05T16:10:46.155Z,3.90
2022-09-05T16:12:16.255Z,3.95
2022-09-05T16:13:17.572Z,3.45
2022-09-05T16:18:04.540Z,3.42
2022-09-05T16:23:14.144Z,2.85
2022-09-05T16:23:15.095Z,3.17
2022-09-05T16:23:16.961Z,2.60
2022-09-05T16:23:17.215Z,3.20
2022-09-05T16:23:32.506Z,2.92
2022-09-05T16:23:41.580Z,2.95
2022-09-05T16:24:59.197Z,3.08
2022-09-05T16:26:10.593Z,2.70
2022-09-05T16:27:18.052Z,2.80
2022-09-05T16:28:23.551Z,2.53
2022-09-05T16:29:29.332Z,2.63
2022-09-05T16:30:33.876Z,2.17
2022-09-05T16:31:42.550Z,2.92
2022-09-05T16:32:51.394Z,2.50
2022-09-05T16:33:53.876Z,2.47
2022-09-05T16:35:08.730Z,2.63
2022-09-05T16:36:19.196Z,2.60
2022-09-05T16:37:26.882Z,5.03
2022-09-05T16:38:49.681Z,3.15
2022-09-05T16:39:59.745Z,3.50
2022-09-05T16:41:07.353Z,3.60
2022-09-05T16:42:45.974Z,3.17
2022-09-05T16:43:58.686Z,2.30
2022-09-05T16:45:26.470Z,2.58
2022-09-05T16:46:39.367Z,2.47
2022-09-05T16:48:03.886Z,2.38
2022-09-05T16:49:19.560Z,2.33
2022-09-05T16:50:50.353Z,2.22
2022-09-05T16:52:07.096Z,2.30
2022-09-05T16:53:53.311Z,2.50
2022-09-05T16:55:29.254Z,2.30
2022-09-05T16:56:39.518Z,2.70
2022-09-05T16:58:12.529Z,2.47
2022-09-05T16:59:28.508Z,2.80
2022-09-05T17:00:44.949Z,2.50
2022-09-05T17:02:05.449Z,2.72
2022-09-05T17:03:46.161Z,2.45
2022-09-05T17:05:04.483Z,2.70
2022-09-05T17:06:26.333Z,2.60
2022-09-05T17:07:40.059Z,2.25
2022-09-05T17:08:44.126Z,2.30
2022-09-05T17:09:46.145Z,2.72
2022-09-05T17:11:12.395Z,3.10
2022-09-05T17:12:33.546Z,2.58
2022-09-05T17:13:41.352Z,2.60
2022-09-05T17:15:06.053Z,2.80
2022-09-05T17:16:22.354Z,2.92
2022-09-05T17:18:20.825Z,2.72
2022-09-05T17:18:59.427Z,2.63
2022-09-05T17:20:08.057Z,2.72
2022-09-05T17:21:12.927Z,2.85
2022-09-05T17:25:16.856Z,2.80
2022-09-05T17:29:17.978Z,2.70
2022-09-05T17:29:24.241Z,2.85
2022-09-05T17:29:25.496Z,2.92
2022-09-05T17:29:26.428Z,3.05
2022-09-05T17:31:54.267Z,3.15
2022-09-05T17:32:57.416Z,2.55
2022-09-05T17:34:24.423Z,2.58
2022-09-05T17:35:42.477Z,2.65
2022-09-05T17:36:44.632Z,3.00
2022-09-05T17:38:13.436Z,2.40
2022-09-05T17:39:32.956Z,2.90
2022-09-05T17:41:43.312Z,2.70
2022-09-05T17:43:09.337Z,2.92
2022-09-05T17:44:19.351Z,3.20
2022-09-05T17:45:44.908Z,3.72
2022-09-05T17:47:07.504Z,3.58
2022-09-05T17:48:29.515Z,3.88
2022-09-05T17:49:44.831Z,3.33
2022-09-05T17:50:51.362Z,2.83
2022-09-05T17:51:53.180Z,2.70
2022-09-05T17:52:59.351Z,2.92
2022-09-05T17:54:07.362Z,3.08
2022-09-05T17:55:13.692Z,2.97
2022-09-05T17:56:48.620Z,2.40
2022-09-05T17:57:50.574Z,2.70
2022-09-05T17:59:23.045Z,3.00
2022-09-05T18:00:48.854Z,3.00
2022-09-05T18:02:05.920Z,3.50
2022-09-05T18:03:07.764Z,2.72
2022-09-05T18:04:17.711Z,3.13
2022-09-05T18:05:54.459Z,2.90
2022-09-05T18:07:00.615Z,2.90
2022-09-05T18:08:02.908Z,2.65
2022-09-05T18:09:08.990Z,2.55
2022-09-05T18:10:15.641Z,2.60
2022-09-05T18:11:29.129Z,2.67
2022-09-05T18:13:12.494Z,2.83
2022-09-05T18:14:14.928Z,2.83
2022-09-05T18:15:32.551Z,3.13
2022-09-05T18:17:35.204Z,2.97
2022-09-05T18:19:28.494Z,3.20
2022-09-05T18:19:57.605Z,2.90
2022-09-05T18:22:33.561Z,2.75
2022-09-05T18:23:43.871Z,3.17
2022-09-05T18:24:54.210Z,2.80
2022-09-05T18:26:21.327Z,3.20
2022-09-05T18:28:03.846Z,3.22
2022-09-05T18:29:05.956Z,3.05
2022-09-05T18:30:17.092Z,3.00
2022-09-05T18:31:41.196Z,3.00
2022-09-05T18:33:53.281Z,2.88
2022-09-05T18:34:34.521Z,3.08
2022-09-05T18:35:42.920Z,3.10
2022-09-05T18:36:52.441Z,3.45
2022-09-05T18:38:14.540Z,3.38
2022-09-05T18:39:39.409Z,2.67
2022-09-05T18:41:14.327Z,3.00